createdAt,value
2023-05-21T00:01:08.064Z,72.15
2023-05-21T00:03:35.969Z,72.65
2023-05-21T00:06:03.731Z,72.58
2023-05-21T00:08:30.981Z,72.85
2023-05-21T00:10:57.900Z,72.38
2023-05-21T00:13:24.769Z,72.63
2023-05-21T00:15:51.838Z,72.40
2023-05-21T00:18:18.621Z,72.66
2023-05-21T00:20:45.721Z,72.72
2023-05-21T00:23:12.591Z,72.80
2023-05-21T00:25:39.312Z,72.93
2023-05-21T00:28:06.090Z,73.21
2023-05-21T00:30:32.960Z,73.14
2023-05-21T00:33:02.491Z,73.84
2023-05-21T00:35:29.679Z,74.16
2023-05-21T00:37:57.220Z,75.13
2023-05-21T00:40:24.092Z,74.68
2023-05-21T00:42:50.977Z,74.85
2023-05-21T00:45:17.804Z,74.89
2023-05-21T00:47:45.899Z,74.92
2023-05-21T00:50:14.936Z,75.49
2023-05-21T00:52:43.982Z,74.87
2023-05-21T00:55:10.965Z,75.45
2023-05-21T00:57:39.535Z,75.40
2023-05-21T01:00:08.756Z,75.26
2023-05-21T01:02:37.333Z,75.55
2023-05-21T01:05:08.437Z,74.92
2023-05-21T01:07:38.919Z,75.35
2023-05-21T01:10:08.442Z,75.37
2023-05-21T01:12:35.791Z,74.40
2023-05-21T01:15:04.086Z,75.11
2023-05-21T01:17:35.559Z,75.07
2023-05-21T01:20:09.986Z,75.44
2023-05-21T01:22:41.219Z,75.20
2023-05-21T01:25:08.392Z,75.41
2023-05-21T01:27:35.163Z,75.52
2023-05-21T01:30:02.239Z,76.10
2023-05-21T01:32:50.818Z,75.61
2023-05-21T01:35:22.465Z,75.99
2023-05-21T01:37:55.719Z,76.37
2023-05-21T01:40:35.902Z,76.80
2023-05-21T01:43:05.692Z,76.56
2023-05-21T01:45:36.600Z,76.23
2023-05-21T01:48:05.843Z,76.12
2023-05-21T01:50:35.007Z,75.98
2023-05-21T01:53:03.681Z,76.55
2023-05-21T01:55:31.219Z,76.51
2023-05-21T01:58:01.758Z,76.49
2023-05-21T02:00:29.378Z,76.27
2023-05-21T02:02:56.551Z,76.11
2023-05-21T02:05:23.458Z,75.52
2023-05-21T02:07:52.077Z,75.62
2023-05-21T02:10:19.264Z,76.11
2023-05-21T02:12:46.604Z,76.20
2023-05-21T02:15:17.887Z,76.29
2023-05-21T02:17:46.254Z,77.01
2023-05-21T02:20:13.726Z,77.00
2023-05-21T02:22:41.743Z,77.34
2023-05-21T02:25:09.874Z,76.50
2023-05-21T02:27:37.821Z,76.64
2023-05-21T02:30:06.878Z,76.99
2023-05-21T02:32:34.946Z,76.63
2023-05-21T02:35:03.790Z,76.56
2023-05-21T02:37:35.927Z,77.08
2023-05-21T02:40:05.894Z,77.21
2023-05-21T02:42:39.990Z,76.94
2023-05-21T02:45:12.481Z,76.90
2023-05-21T02:47:41.981Z,76.73
2023-05-21T02:50:09.586Z,76.98
2023-05-21T02:52:43.633Z,76.84
2023-05-21T02:55:10.527Z,77.42
2023-05-21T02:57:37.340Z,77.27
2023-05-21T03:00:08.401Z,77.21
2023-05-21T03:02:35.771Z,77.60
2023-05-21T03:05:02.866Z,77.86
2023-05-21T03:07:30.758Z,78.22
2023-05-21T03:09:57.751Z,78.23
2023-05-21T03:12:24.487Z,77.82
2023-05-21T03:14:51.402Z,77.78
2023-05-21T03:17:20.575Z,77.91
2023-05-21T03:19:49.069Z,77.06
2023-05-21T03:22:16.071Z,77.94
2023-05-21T03:24:42.778Z,78.01
2023-05-21T03:27:09.544Z,77.59
2023-05-21T03:29:36.275Z,78.32
2023-05-21T03:32:03.875Z,78.53
2023-05-21T03:34:34.501Z,78.42
2023-05-21T03:37:02.421Z,78.92
2023-05-21T03:39:29.848Z,79.57
2023-05-21T03:41:57.419Z,78.92
2023-05-21T03:44:38.603Z,79.01
2023-05-21T03:47:25.351Z,79.04
2023-05-21T03:49:53.390Z,78.52
2023-05-21T03:52:20.154Z,78.91
2023-05-21T03:54:46.915Z,79.52
2023-05-21T03:57:13.664Z,78.97
2023-05-21T03:59:40.907Z,78.66
2023-05-21T04:02:07.905Z,78.52
2023-05-21T04:04:34.751Z,78.80
2023-05-21T04:07:01.575Z,79.04
2023-05-21T04:09:28.308Z,78.64
2023-05-21T04:11:55.180Z,78.60
2023-05-21T04:14:23.338Z,79.12
2023-05-21T04:16:51.923Z,78.43
2023-05-21T04:19:20.093Z,79.87
2023-05-21T04:21:47.560Z,79.75
2023-05-21T04:24:14.758Z,80.15
2023-05-21T04:27:09.860Z,79.47
2023-05-21T04:29:37.709Z,79.62
2023-05-21T04:32:05.168Z,79.34
2023-05-21T04:34:34.007Z,79.82
2023-05-21T04:37:02.332Z,79.28
2023-05-21T04:39:31.503Z,79.42
2023-05-21T04:41:58.250Z,79.13
2023-05-21T04:44:25.773Z,79.35
2023-05-21T04:46:54.751Z,79.45
2023-05-21T04:49:21.683Z,79.63
2023-05-21T04:51:49.406Z,79.66
2023-05-21T04:54:16.619Z,79.88
2023-05-21T04:56:44.466Z,79.36
2023-05-21T04:59:11.378Z,79.79
2023-05-21T05:01:38.590Z,79.51
2023-05-21T05:04:06.108Z,79.84
2023-05-21T05:06:32.858Z,79.67
2023-05-21T05:08:59.641Z,79.71
2023-05-21T05:11:26.712Z,80.46
2023-05-21T05:13:53.758Z,79.91
2023-05-21T05:16:25.325Z,79.88
2023-05-21T05:18:52.988Z,79.08
2023-05-21T05:21:22.698Z,79.00
2023-05-21T05:23:50.120Z,78.70
2023-05-21T05:26:17.315Z,79.68
2023-05-21T05:28:44.016Z,79.22
2023-05-21T05:31:11.247Z,78.82
2023-05-21T05:33:38.027Z,78.79
2023-05-21T05:36:05.092Z,78.58
2023-05-21T05:38:31.831Z,78.52
2023-05-21T05:40:58.598Z,79.01
2023-05-21T05:43:26.582Z,79.53
2023-05-21T05:45:53.707Z,78.78
2023-05-21T05:48:20.580Z,78.49
2023-05-21T05:50:47.902Z,78.85
2023-05-21T05:53:15.284Z,78.68
2023-05-21T05:55:42.089Z,77.62
2023-05-21T05:58:08.855Z,77.92
2023-05-21T06:00:48.187Z,77.21
2023-05-21T06:03:15.050Z,76.26
2023-05-21T06:05:44.906Z,74.99
2023-05-21T06:08:11.684Z,73.79
2023-05-21T06:10:38.449Z,73.73
2023-05-21T06:13:05.438Z,73.36
2023-05-21T06:15:32.214Z,72.78
2023-05-21T06:17:59.145Z,72.28
2023-05-21T06:20:26.104Z,72.43
2023-05-21T06:22:52.949Z,72.84
2023-05-21T06:25:19.848Z,73.03
2023-05-21T06:27:47.220Z,72.36
2023-05-21T06:30:19.915Z,71.82
2023-05-21T06:32:46.915Z,70.69
2023-05-21T06:35:14.849Z,70.00
2023-05-21T06:37:43.002Z,69.64
2023-05-21T06:40:10.061Z,69.06
2023-05-21T06:42:37.658Z,68.74
2023-05-21T06:45:23.252Z,67.91
2023-05-21T06:47:53.197Z,67.56
2023-05-21T06:50:20.243Z,67.61
2023-05-21T06:52:47.169Z,67.31
2023-05-21T06:55:14.265Z,66.71
2023-05-21T06:57:59.412Z,65.53
2023-05-21T07:00:26.436Z,65.33
2023-05-21T07:02:54.184Z,64.92
2023-05-21T07:05:21.063Z,64.59
2023-05-21T07:07:47.756Z,64.03
2023-05-21T07:10:14.533Z,63.97
2023-05-21T07:12:42.074Z,63.52
2023-05-21T07:15:10.921Z,63.43
2023-05-21T07:17:38.214Z,62.84
2023-05-21T07:20:08.870Z,63.17
2023-05-21T07:22:38.971Z,62.88
2023-05-21T07:25:06.802Z,62.66
2023-05-21T07:27:33.621Z,62.33
2023-05-21T07:30:00.725Z,61.60
2023-05-21T07:32:29.161Z,60.95
2023-05-21T07:34:56.637Z,60.81
2023-05-21T07:37:27.835Z,60.09
2023-05-21T07:39:57.584Z,59.88
2023-05-21T07:42:25.312Z,59.49
2023-05-21T07:44:53.296Z,59.18
2023-05-21T07:47:20.755Z,58.92
2023-05-21T07:49:47.658Z,58.96
2023-05-21T07:52:14.391Z,58.44
2023-05-21T07:54:41.435Z,57.90
2023-05-21T07:57:08.582Z,57.96
2023-05-21T07:59:51.149Z,57.70
2023-05-21T08:02:18.095Z,57.62
2023-05-21T08:04:44.848Z,57.22
2023-05-21T08:07:13.668Z,57.15
2023-05-21T08:09:40.770Z,56.57
2023-05-21T08:12:09.775Z,56.26
2023-05-21T08:14:36.661Z,56.45
2023-05-21T08:17:03.643Z,56.52
2023-05-21T08:19:31.242Z,55.99
2023-05-21T08:21:58.413Z,55.79
2023-05-21T08:24:26.320Z,55.92
2023-05-21T08:26:53.182Z,56.43
2023-05-21T08:29:20.064Z,56.36
2023-05-21T08:31:47.057Z,56.14
2023-05-21T08:34:13.895Z,56.85
2023-05-21T08:36:47.950Z,57.20
2023-05-21T08:39:37.848Z,57.55
2023-05-21T08:42:25.632Z,57.53
2023-05-21T08:45:05.634Z,57.93
2023-05-21T08:47:36.738Z,58.01
2023-05-21T08:50:08.620Z,58.18
2023-05-21T08:52:35.383Z,57.73
2023-05-21T08:55:04.663Z,57.61
2023-05-21T08:57:32.568Z,57.35
2023-05-21T08:59:59.914Z,57.73
2023-05-21T09:02:30.490Z,57.74
2023-05-21T09:04:58.976Z,58.44
2023-05-21T09:07:29.209Z,58.35
2023-05-21T09:10:27.437Z,58.44
2023-05-21T09:12:54.323Z,58.49
2023-05-21T09:15:21.650Z,58.75
2023-05-21T09:17:48.959Z,58.07
2023-05-21T09:20:33.505Z,57.91
2023-05-21T09:23:04.956Z,58.33
2023-05-21T09:25:33.193Z,58.71
2023-05-21T09:28:12.355Z,57.72
2023-05-21T09:30:53.940Z,57.71
2023-05-21T09:33:31.554Z,58.05
2023-05-21T09:35:58.609Z,58.08
2023-05-21T09:38:27.184Z,59.27
2023-05-21T09:40:57.481Z,59.13
2023-05-21T09:43:25.439Z,57.91
2023-05-21T09:46:00.481Z,57.47
2023-05-21T09:48:38.175Z,56.18
2023-05-21T09:51:14.303Z,55.24
2023-05-21T09:53:54.195Z,54.98
2023-05-21T09:56:23.416Z,55.26
2023-05-21T09:59:00.283Z,54.65
2023-05-21T10:01:28.679Z,54.44
2023-05-21T10:03:57.456Z,54.73
2023-05-21T10:06:26.747Z,54.97
2023-05-21T10:08:58.538Z,55.69
2023-05-21T10:11:29.759Z,55.29
2023-05-21T10:14:19.711Z,55.36
2023-05-21T10:16:47.515Z,55.72
2023-05-21T10:19:15.855Z,55.79
2023-05-21T10:21:43.762Z,56.15
2023-05-21T10:24:10.913Z,56.02
2023-05-21T10:26:39.615Z,55.48
2023-05-21T10:29:07.912Z,55.79
2023-05-21T10:31:35.043Z,55.78
2023-05-21T10:34:05.921Z,56.35
2023-05-21T10:36:34.186Z,55.91
2023-05-21T10:39:02.131Z,55.67
2023-05-21T10:41:46.595Z,55.60
2023-05-21T10:44:35.197Z,54.92
2023-05-21T10:47:31.791Z,54.78
2023-05-21T10:50:34.132Z,54.51
2023-05-21T10:53:28.898Z,54.04
2023-05-21T10:55:55.613Z,53.94
2023-05-21T10:58:45.302Z,53.89
2023-05-21T11:01:14.028Z,54.16
2023-05-21T11:03:41.244Z,54.30
2023-05-21T11:06:08.479Z,53.97
2023-05-21T11:08:37.047Z,53.82
2023-05-21T11:11:04.212Z,52.84
2023-05-21T11:13:49.536Z,53.25
2023-05-21T11:16:17.673Z,53.40
2023-05-21T11:18:47.434Z,52.99
2023-05-21T11:21:20.965Z,52.61
2023-05-21T11:23:53.721Z,53.00
2023-05-21T11:26:23.228Z,53.15
2023-05-21T11:29:05.015Z,53.14
2023-05-21T11:31:39.898Z,53.30
2023-05-21T11:34:29.897Z,52.85
2023-05-21T11:37:18.716Z,53.14
2023-05-21T11:39:46.391Z,53.76
2023-05-21T11:42:13.358Z,54.01
2023-05-21T11:44:41.343Z,54.01
2023-05-21T11:47:10.045Z,54.22
2023-05-21T11:49:37.486Z,53.09
2023-05-21T11:52:06.203Z,53.83
2023-05-21T11:54:36.869Z,53.53
2023-05-21T11:57:10.045Z,52.43
2023-05-21T11:59:36.993Z,51.95
2023-05-21T12:02:04.848Z,52.26
2023-05-21T12:04:38.888Z,52.45
2023-05-21T12:07:09.805Z,52.59
2023-05-21T12:09:44.517Z,52.82
2023-05-21T12:12:13.977Z,52.69
2023-05-21T12:14:45.239Z,51.92
2023-05-21T12:17:15.496Z,52.53
2023-05-21T12:19:42.848Z,51.85
2023-05-21T12:22:09.963Z,50.88
2023-05-21T12:24:38.319Z,51.07
2023-05-21T12:27:10.192Z,51.15
2023-05-21T12:29:38.583Z,51.39
2023-05-21T12:32:08.685Z,49.65
2023-05-21T12:34:40.161Z,51.16
2023-05-21T12:37:07.796Z,50.38
2023-05-21T12:39:43.107Z,49.05
2023-05-21T12:42:10.226Z,48.54
2023-05-21T12:44:39.528Z,48.27
2023-05-21T12:47:06.746Z,48.51
2023-05-21T12:49:35.912Z,46.93
2023-05-21T12:52:04.572Z,47.16
2023-05-21T12:54:38.347Z,47.11
2023-05-21T12:57:10.350Z,46.69
2023-05-21T12:59:59.798Z,46.83
2023-05-21T13:02:32.258Z,45.30
2023-05-21T13:05:01.360Z,43.77
2023-05-21T13:07:38.657Z,44.32
2023-05-21T13:10:06.900Z,44.27
2023-05-21T13:12:34.868Z,44.18
2023-05-21T13:15:04.921Z,43.76
2023-05-21T13:17:38.450Z,44.05
2023-05-21T13:20:12.193Z,43.22
2023-05-21T13:22:45.077Z,42.13
2023-05-21T13:25:16.708Z,42.52
2023-05-21T13:27:43.948Z,41.70
2023-05-21T13:30:11.772Z,41.35
2023-05-21T13:32:39.993Z,40.65
2023-05-21T13:35:07.501Z,40.58
2023-05-21T13:37:37.723Z,40.99
2023-05-21T13:40:06.329Z,41.41
2023-05-21T13:42:34.067Z,41.40
2023-05-21T13:45:00.960Z,41.02
2023-05-21T13:47:30.552Z,40.83
2023-05-21T13:49:57.721Z,41.28
2023-05-21T13:52:24.832Z,42.24
2023-05-21T13:54:51.677Z,41.83
2023-05-21T13:57:18.589Z,42.40
2023-05-21T13:59:45.475Z,42.25
2023-05-21T14:02:12.288Z,41.97
2023-05-21T14:04:39.606Z,41.63
2023-05-21T14:07:07.073Z,41.04
2023-05-21T14:09:34.081Z,41.77
2023-05-21T14:12:01.553Z,41.70
2023-05-21T14:14:28.384Z,41.72
2023-05-21T14:16:55.133Z,41.79
2023-05-21T14:19:22.067Z,41.73
2023-05-21T14:21:52.146Z,41.20
2023-05-21T14:24:19.284Z,40.22
2023-05-21T14:26:46.108Z,39.94
2023-05-21T14:29:12.790Z,39.16
2023-05-21T14:31:39.587Z,38.96
2023-05-21T14:34:09.303Z,38.69
2023-05-21T14:36:36.448Z,38.20
2023-05-21T14:39:03.625Z,38.27
2023-05-21T14:41:30.526Z,36.76
2023-05-21T14:43:57.354Z,37.60
2023-05-21T14:46:24.172Z,38.20
2023-05-21T14:48:50.875Z,37.43
2023-05-21T14:51:17.901Z,37.77
2023-05-21T14:53:44.894Z,36.56
2023-05-21T14:56:11.704Z,36.29
2023-05-21T14:58:38.642Z,35.31
2023-05-21T15:01:05.758Z,35.47
2023-05-21T15:03:32.847Z,36.25
2023-05-21T15:05:59.788Z,36.59
2023-05-21T15:08:26.550Z,36.39
2023-05-21T15:10:53.358Z,35.87
2023-05-21T15:13:21.293Z,34.87
2023-05-21T15:15:49.611Z,34.47
2023-05-21T15:18:16.440Z,32.56
2023-05-21T15:20:43.241Z,33.27
2023-05-21T15:23:16.634Z,33.01
2023-05-21T15:25:45.069Z,30.96
2023-05-21T15:28:12.221Z,30.58
2023-05-21T15:30:39.547Z,28.83
2023-05-21T15:33:06.422Z,27.65
2023-05-21T15:35:33.500Z,26.85
2023-05-21T15:38:00.547Z,26.86
2023-05-21T15:40:27.492Z,27.58
2023-05-21T15:42:54.488Z,28.64
2023-05-21T15:45:21.325Z,29.55
2023-05-21T15:47:48.079Z,30.84
2023-05-21T15:50:14.985Z,31.96
2023-05-21T15:52:42.315Z,31.65
2023-05-21T15:55:09.639Z,33.15
2023-05-21T15:57:36.628Z,33.09
2023-05-21T16:00:04.907Z,34.14
2023-05-21T16:02:35.659Z,35.09
2023-05-21T16:05:02.576Z,35.46
2023-05-21T16:07:30.171Z,35.76
2023-05-21T16:09:56.947Z,36.39
2023-05-21T16:12:23.730Z,36.35
2023-05-21T16:14:50.537Z,36.46
2023-05-21T16:17:18.322Z,36.93
2023-05-21T16:19:45.286Z,37.13
2023-05-21T16:22:12.056Z,37.33
2023-05-21T16:24:38.836Z,37.79
2023-05-21T16:27:05.823Z,37.04
2023-05-21T16:29:32.556Z,37.52
2023-05-21T16:31:59.344Z,37.98
2023-05-21T16:34:26.203Z,37.51
2023-05-21T16:36:52.920Z,36.70
2023-05-21T16:39:19.838Z,37.96
2023-05-21T16:41:46.626Z,38.51
2023-05-21T16:44:14.431Z,38.00
2023-05-21T16:46:41.662Z,37.85
2023-05-21T16:49:08.528Z,38.42
2023-05-21T16:51:35.381Z,37.16
2023-05-21T16:54:04.156Z,37.42
2023-05-21T16:56:32.036Z,38.50
2023-05-21T16:58:59.334Z,38.25
2023-05-21T17:01:26.260Z,38.92
2023-05-21T17:03:54.273Z,39.65
2023-05-21T17:06:21.313Z,39.46
2023-05-21T17:08:48.145Z,39.22
2023-05-21T17:11:15.078Z,40.33
2023-05-21T17:13:42.067Z,40.91
2023-05-21T17:16:08.941Z,40.44
2023-05-21T17:18:35.779Z,40.46
2023-05-21T17:21:03.945Z,40.68
2023-05-21T17:23:30.794Z,41.30
2023-05-21T17:25:57.576Z,40.94
2023-05-21T17:28:24.447Z,41.60
2023-05-21T17:30:51.542Z,41.74
2023-05-21T17:33:19.121Z,41.56
2023-05-21T17:35:46.029Z,42.00
2023-05-21T17:38:14.082Z,42.01
2023-05-21T17:40:40.934Z,41.68
2023-05-21T17:43:07.696Z,42.46
2023-05-21T17:45:34.593Z,42.29
2023-05-21T17:48:01.510Z,42.69
2023-05-21T17:50:28.603Z,42.50
2023-05-21T17:52:55.362Z,42.72
2023-05-21T17:55:22.228Z,41.07
2023-05-21T17:57:49.017Z,41.16
2023-05-21T18:00:16.135Z,40.42
2023-05-21T18:02:43.090Z,40.81
2023-05-21T18:05:10.351Z,40.80
2023-05-21T18:07:38.190Z,40.08
2023-05-21T18:10:05.792Z,40.88
2023-05-21T18:12:32.587Z,39.45
2023-05-21T18:14:59.567Z,38.51
2023-05-21T18:17:26.377Z,37.62
2023-05-21T18:19:53.199Z,38.72
2023-05-21T18:22:19.969Z,39.47
2023-05-21T18:24:46.758Z,40.40
2023-05-21T18:27:13.594Z,39.91
2023-05-21T18:29:40.553Z,41.35
2023-05-21T18:32:08.092Z,43.26
2023-05-21T18:34:34.968Z,43.71
2023-05-21T18:37:01.711Z,44.67
2023-05-21T18:39:28.459Z,44.82
2023-05-21T18:42:11.485Z,44.78
2023-05-21T18:44:39.455Z,44.46
2023-05-21T18:47:07.564Z,44.27
2023-05-21T18:49:35.726Z,43.37
2023-05-21T18:52:02.612Z,44.71
2023-05-21T18:54:29.306Z,45.24
2023-05-21T18:56:59.556Z,45.40
2023-05-21T18:59:27.189Z,46.24
2023-05-21T19:01:56.017Z,45.78
2023-05-21T19:04:23.322Z,45.90
2023-05-21T19:06:50.066Z,46.18
2023-05-21T19:09:16.917Z,46.44
2023-05-21T19:11:43.886Z,46.61
2023-05-21T19:14:10.844Z,46.68
2023-05-21T19:16:37.773Z,45.45
2023-05-21T19:19:04.629Z,45.54
2023-05-21T19:21:32.250Z,46.61
2023-05-21T19:23:59.086Z,47.00
2023-05-21T19:26:26.007Z,46.87
2023-05-21T19:28:54.597Z,47.34
2023-05-21T19:31:22.565Z,47.74
2023-05-21T19:33:49.452Z,47.86
2023-05-21T19:36:16.323Z,48.42
2023-05-21T19:38:50.146Z,48.37
2023-05-21T19:41:17.856Z,48.91
2023-05-21T19:43:45.296Z,49.06
2023-05-21T19:46:12.218Z,49.12
2023-05-21T19:48:39.047Z,49.55
2023-05-21T19:51:05.928Z,49.67
2023-05-21T19:53:32.678Z,50.04
2023-05-21T19:55:59.799Z,50.14
2023-05-21T19:58:29.379Z,49.99
2023-05-21T20:00:58.366Z,50.14
2023-05-21T20:03:26.673Z,50.65
2023-05-21T20:05:53.872Z,50.82
2023-05-21T20:08:21.319Z,51.04
2023-05-21T20:10:51.461Z,51.13
2023-05-21T20:13:19.212Z,51.52
2023-05-21T20:15:48.011Z,51.94
2023-05-21T20:18:15.477Z,52.44
2023-05-21T20:20:43.221Z,52.69
2023-05-21T20:23:09.990Z,54.12
2023-05-21T20:25:36.769Z,54.31
2023-05-21T20:28:05.029Z,54.67
2023-05-21T20:30:33.703Z,56.15
2023-05-21T20:33:01.921Z,54.92
2023-05-21T20:35:29.312Z,54.75
2023-05-21T20:37:56.218Z,55.78
2023-05-21T20:40:23.014Z,55.38
2023-05-21T20:42:53.423Z,55.65
2023-05-21T20:45:20.941Z,56.11
2023-05-21T20:47:49.689Z,55.87
2023-05-21T20:50:17.715Z,56.47
2023-05-21T20:52:47.153Z,56.92
2023-05-21T20:55:14.618Z,57.09
2023-05-21T20:57:42.019Z,56.35
2023-05-21T21:00:12.754Z,56.46
2023-05-21T21:02:39.643Z,55.62
2023-05-21T21:05:10.208Z,56.79
2023-05-21T21:07:37.656Z,56.08
2023-05-21T21:10:05.454Z,56.56
2023-05-21T21:12:32.328Z,55.77
2023-05-21T21:14:59.075Z,55.67
2023-05-21T21:17:25.786Z,55.74
2023-05-21T21:19:52.536Z,55.83
2023-05-21T21:22:19.458Z,55.88
2023-05-21T21:24:46.913Z,55.57
2023-05-21T21:27:13.721Z,55.67
2023-05-21T21:29:40.512Z,55.60
2023-05-21T21:32:07.894Z,55.93
2023-05-21T21:34:35.912Z,56.10
2023-05-21T21:37:02.957Z,56.25
2023-05-21T21:39:29.746Z,57.29
2023-05-21T21:41:56.595Z,57.82
2023-05-21T21:44:23.367Z,57.16
2023-05-21T21:46:50.122Z,57.26
2023-05-21T21:49:17.443Z,57.14
2023-05-21T21:51:45.109Z,57.31
2023-05-21T21:54:12.248Z,57.75
2023-05-21T21:56:38.981Z,58.13
2023-05-21T21:59:06.387Z,58.08
2023-05-21T22:01:33.453Z,58.31
2023-05-21T22:04:00.271Z,58.04
2023-05-21T22:06:27.762Z,57.94
2023-05-21T22:08:54.812Z,57.75
2023-05-21T22:11:21.935Z,58.02
2023-05-21T22:13:48.858Z,58.29
2023-05-21T22:16:15.737Z,58.40
2023-05-21T22:18:42.801Z,58.27
2023-05-21T22:21:10.804Z,58.24
2023-05-21T22:23:38.503Z,58.17
2023-05-21T22:26:06.287Z,59.58
2023-05-21T22:28:33.194Z,59.97
2023-05-21T22:30:59.994Z,59.81
2023-05-21T22:33:26.955Z,59.94
2023-05-21T22:35:54.367Z,59.87
2023-05-21T22:38:21.429Z,60.01
2023-05-21T22:40:48.514Z,60.00
2023-05-21T22:43:15.265Z,59.95
2023-05-21T22:45:42.443Z,60.07
2023-05-21T22:48:09.344Z,59.64
2023-05-21T22:50:38.275Z,60.06
2023-05-21T22:53:06.053Z,60.32
2023-05-21T22:55:32.797Z,60.50
2023-05-21T22:57:59.513Z,60.49
2023-05-21T23:00:26.495Z,60.44
2023-05-21T23:02:54.571Z,60.20
2023-05-21T23:05:22.021Z,60.63
2023-05-21T23:07:49.071Z,60.66
2023-05-21T23:10:15.902Z,60.40
2023-05-21T23:12:42.637Z,60.67
2023-05-21T23:15:10.255Z,60.67
2023-05-21T23:17:37.863Z,60.54
2023-05-21T23:20:06.086Z,60.73
2023-05-21T23:22:32.892Z,60.39
2023-05-21T23:24:59.726Z,60.56
2023-05-21T23:27:26.567Z,60.57
2023-05-21T23:29:53.390Z,60.63
2023-05-21T23:32:20.241Z,60.97
2023-05-21T23:34:47.202Z,60.93
2023-05-21T23:37:14.154Z,60.84
2023-05-21T23:39:40.873Z,60.76
2023-05-21T23:42:07.870Z,60.71
2023-05-21T23:44:34.795Z,60.73
2023-05-21T23:47:01.579Z,60.66
2023-05-21T23:49:28.381Z,60.33
2023-05-21T23:51:55.382Z,60.53
2023-05-21T23:54:22.360Z,60.55
2023-05-21T23:56:49.140Z,60.75
2023-05-21T23:59:18.373Z,60.81
